sensor_id;sensor_type;location;lat;lon;timestamp;P1;P2;P0
78512;PMS5003;67809;55.034;73.462;2023-02-22T00:00:39;40.00;28.25;16.75
78512;PMS5003;67809;55.034;73.462;2023-02-22T00:03:18;38.00;26.00;16.00
78512;PMS5003;67809;55.034;73.462;2023-02-22T00:05:50;40.00;29.33;17.00
78512;PMS5003;67809;55.034;73.462;2023-02-22T00:08:28;38.00;28.00;17.00
78512;PMS5003;67809;55.034;73.462;2023-02-22T00:10:55;40.75;28.50;17.00
78512;PMS5003;67809;55.034;73.462;2023-02-22T00:13:22;41.50;29.00;17.00
78512;PMS5003;67809;55.034;73.462;2023-02-22T00:15:48;39.25;29.25;17.00
78512;PMS5003;67809;55.034;73.462;2023-02-22T00:18:15;40.25;30.00;18.00
78512;PMS5003;67809;55.034;73.462;2023-02-22T00:20:42;41.50;32.00;18.00
78512;PMS5003;67809;55.034;73.462;2023-02-22T00:23:12;41.50;29.75;18.00
78512;PMS5003;67809;55.034;73.462;2023-02-22T00:25:43;45.00;31.67;19.00
78512;PMS5003;67809;55.034;73.462;2023-02-22T00:28:10;43.50;31.75;18.00
78512;PMS5003;67809;55.034;73.462;2023-02-22T00:30:36;43.00;30.75;18.00
78512;PMS5003;67809;55.034;73.462;2023-02-22T00:33:13;40.75;29.50;17.25
78512;PMS5003;67809;55.034;73.462;2023-02-22T00:35:39;37.33;28.33;16.67
78512;PMS5003;67809;55.034;73.462;2023-02-22T00:38:11;45.75;32.00;19.00
78512;PMS5003;67809;55.034;73.462;2023-02-22T00:40:38;42.00;30.75;18.00
78512;PMS5003;67809;55.034;73.462;2023-02-22T00:43:14;38.00;29.00;16.00
78512;PMS5003;67809;55.034;73.462;2023-02-22T00:45:40;41.00;30.00;17.00
78512;PMS5003;67809;55.034;73.462;2023-02-22T00:48:12;43.00;30.00;18.25
78512;PMS5003;67809;55.034;73.462;2023-02-22T00:50:42;36.75;28.00;17.00
78512;PMS5003;67809;55.034;73.462;2023-02-22T00:53:09;36.75;28.25;16.50
78512;PMS5003;67809;55.034;73.462;2023-02-22T00:55:45;42.00;31.00;17.00
78512;PMS5003;67809;55.034;73.462;2023-02-22T00:58:16;48.50;32.00;18.50
78512;PMS5003;67809;55.034;73.462;2023-02-22T01:00:49;45.00;34.00;18.00
78512;PMS5003;67809;55.034;73.462;2023-02-22T01:03:16;45.25;32.75;20.00
78512;PMS5003;67809;55.034;73.462;2023-02-22T01:05:47;42.00;30.00;19.00
78512;PMS5003;67809;55.034;73.462;2023-02-22T01:08:14;46.75;31.00;17.75
78512;PMS5003;67809;55.034;73.462;2023-02-22T01:10:40;44.00;31.50;18.00
78512;PMS5003;67809;55.034;73.462;2023-02-22T01:13:07;48.00;34.00;20.00
78512;PMS5003;67809;55.034;73.462;2023-02-22T01:15:34;43.00;32.67;19.00
78512;PMS5003;67809;55.034;73.462;2023-02-22T01:18:01;48.25;34.75;19.00
78512;PMS5003;67809;55.034;73.462;2023-02-22T01:20:27;43.75;31.00;19.00
78512;PMS5003;67809;55.034;73.462;2023-02-22T01:22:54;40.75;30.50;18.75
78512;PMS5003;67809;55.034;73.462;2023-02-22T01:25:27;40.80;30.20;18.00
78512;PMS5003;67809;55.034;73.462;2023-02-22T01:28:04;38.00;28.00;17.00
78512;PMS5003;67809;55.034;73.462;2023-02-22T01:30:40;42.00;30.50;19.00
78512;PMS5003;67809;55.034;73.462;2023-02-22T01:33:06;39.25;29.00;17.00
78512;PMS5003;67809;55.034;73.462;2023-02-22T01:35:42;30.50;25.00;14.50
78512;PMS5003;67809;55.034;73.462;2023-02-22T01:38:08;38.25;28.25;16.25
78512;PMS5003;67809;55.034;73.462;2023-02-22T01:40:39;35.75;26.50;17.00
78512;PMS5003;67809;55.034;73.462;2023-02-22T01:43:25;40.00;29.00;19.00
78512;PMS5003;67809;55.034;73.462;2023-02-22T01:45:52;40.00;29.33;16.00
78512;PMS5003;67809;55.034;73.462;2023-02-22T01:48:21;38.75;28.75;18.00
78512;PMS5003;67809;55.034;73.462;2023-02-22T01:53:22;37.00;28.75;16.75
78512;PMS5003;67809;55.034;73.462;2023-02-22T01:55:55;40.80;28.00;15.80
78512;PMS5003;67809;55.034;73.462;2023-02-22T01:58:22;41.00;29.00;17.50
78512;PMS5003;67809;55.034;73.462;2023-02-22T02:00:59;40.00;30.00;17.75
78512;PMS5003;67809;55.034;73.462;2023-02-22T02:03:29;40.50;29.00;16.50
78512;PMS5003;67809;55.034;73.462;2023-02-22T02:05:59;40.00;27.67;15.67
78512;PMS5003;67809;55.034;73.462;2023-02-22T02:11:08;38.25;28.25;17.00
78512;PMS5003;67809;55.034;73.462;2023-02-22T02:13:44;40.25;29.00;17.00
78512;PMS5003;67809;55.034;73.462;2023-02-22T02:16:10;39.00;29.00;17.25
78512;PMS5003;67809;55.034;73.462;2023-02-22T02:18:36;40.00;29.00;16.00
78512;PMS5003;67809;55.034;73.462;2023-02-22T02:39:29;37.00;28.00;17.00
78512;PMS5003;67809;55.034;73.462;2023-02-22T02:42:10;40.00;29.25;16.75
78512;PMS5003;67809;55.034;73.462;2023-02-22T02:47:16;35.00;25.67;16.00
78512;PMS5003;67809;55.034;73.462;2023-02-22T02:52:47;41.75;29.75;19.00
78512;PMS5003;67809;55.034;73.462;2023-02-22T02:55:24;41.00;29.00;17.00
78512;PMS5003;67809;55.034;73.462;2023-02-22T02:57:55;34.00;27.00;16.00
78512;PMS5003;67809;55.034;73.462;2023-02-22T03:00:23;38.50;28.75;17.25
78512;PMS5003;67809;55.034;73.462;2023-02-22T03:03:10;45.00;31.00;18.25
78512;PMS5003;67809;55.034;73.462;2023-02-22T03:23:59;42.00;30.75;19.00
78512;PMS5003;67809;55.034;73.462;2023-02-22T03:26:32;40.25;30.00;18.00
78512;PMS5003;67809;55.034;73.462;2023-02-22T03:29:01;42.67;31.00;18.33
78512;PMS5003;67809;55.034;73.462;2023-02-22T03:31:37;47.00;34.50;20.00
78512;PMS5003;67809;55.034;73.462;2023-02-22T03:34:09;46.50;32.00;19.50
78512;PMS5003;67809;55.034;73.462;2023-02-22T03:36:38;43.25;31.00;18.00
78512;PMS5003;67809;55.034;73.462;2023-02-22T03:39:09;42.67;31.00;19.00
78512;PMS5003;67809;55.034;73.462;2023-02-22T03:41:51;39.00;28.25;18.25
78512;PMS5003;67809;55.034;73.462;2023-02-22T03:44:30;40.50;29.50;18.50
78512;PMS5003;67809;55.034;73.462;2023-02-22T03:47:00;42.00;31.00;19.00
78512;PMS5003;67809;55.034;73.462;2023-02-22T03:49:31;42.00;31.75;18.00
78512;PMS5003;67809;55.034;73.462;2023-02-22T03:51:59;44.00;33.00;19.50
78512;PMS5003;67809;55.034;73.462;2023-02-22T03:54:28;44.50;32.00;19.00
78512;PMS5003;67809;55.034;73.462;2023-02-22T03:57:08;45.00;32.50;19.00
78512;PMS5003;67809;55.034;73.462;2023-02-22T03:59:49;42.25;32.00;19.00
78512;PMS5003;67809;55.034;73.462;2023-02-22T04:02:15;45.50;33.00;20.00
78512;PMS5003;67809;55.034;73.462;2023-02-22T04:04:44;41.00;30.50;18.25
78512;PMS5003;67809;55.034;73.462;2023-02-22T04:07:11;42.50;31.50;19.00
78512;PMS5003;67809;55.034;73.462;2023-02-22T04:09:37;46.00;34.00;19.50
78512;PMS5003;67809;55.034;73.462;2023-02-22T04:12:04;42.00;31.25;19.00
78512;PMS5003;67809;55.034;73.462;2023-02-22T04:14:36;44.75;33.75;20.00
78512;PMS5003;67809;55.034;73.462;2023-02-22T04:17:02;44.75;33.00;18.50
78512;PMS5003;67809;55.034;73.462;2023-02-22T04:19:28;48.00;34.00;21.00
78512;PMS5003;67809;55.034;73.462;2023-02-22T04:21:55;41.00;31.00;18.00
78512;PMS5003;67809;55.034;73.462;2023-02-22T04:24:24;46.25;32.50;20.00
78512;PMS5003;67809;55.034;73.462;2023-02-22T04:26:55;46.50;33.50;20.00
78512;PMS5003;67809;55.034;73.462;2023-02-22T04:29:22;44.33;34.00;20.00
78512;PMS5003;67809;55.034;73.462;2023-02-22T04:31:54;46.25;34.00;20.00
78512;PMS5003;67809;55.034;73.462;2023-02-22T04:34:20;44.00;32.25;19.75
78512;PMS5003;67809;55.034;73.462;2023-02-22T04:36:47;46.75;33.75;20.25
78512;PMS5003;67809;55.034;73.462;2023-02-22T04:39:13;48.67;35.00;21.00
78512;PMS5003;67809;55.034;73.462;2023-02-22T04:41:50;50.25;34.75;21.00
78512;PMS5003;67809;55.034;73.462;2023-02-22T04:44:16;48.75;34.50;20.50
78512;PMS5003;67809;55.034;73.462;2023-02-22T04:46:42;49.00;35.00;21.00
78512;PMS5003;67809;55.034;73.462;2023-02-22T04:49:11;50.00;36.00;23.00
78512;PMS5003;67809;55.034;73.462;2023-02-22T04:51:44;47.25;34.50;20.50
78512;PMS5003;67809;55.034;73.462;2023-02-22T04:54:16;48.25;34.50;20.50
78512;PMS5003;67809;55.034;73.462;2023-02-22T04:56:46;50.00;37.50;21.25
78512;PMS5003;67809;55.034;73.462;2023-02-22T04:59:12;43.67;32.67;20.00
78512;PMS5003;67809;55.034;73.462;2023-02-22T05:01:42;49.50;35.75;21.50
78512;PMS5003;67809;55.034;73.462;2023-02-22T05:04:08;52.50;38.00;23.00
78512;PMS5003;67809;55.034;73.462;2023-02-22T05:06:38;52.25;36.50;21.75
78512;PMS5003;67809;55.034;73.462;2023-02-22T05:09:10;54.00;37.00;22.00
78512;PMS5003;67809;55.034;73.462;2023-02-22T05:13:55;49.00;36.00;22.00
78512;PMS5003;67809;55.034;73.462;2023-02-22T05:16:21;53.00;38.00;22.00
78512;PMS5003;67809;55.034;73.462;2023-02-22T05:18:52;52.75;39.00;23.00
78512;PMS5003;67809;55.034;73.462;2023-02-22T05:21:18;55.67;40.67;23.00
78512;PMS5003;67809;55.034;73.462;2023-02-22T05:23:54;50.75;38.00;23.00
78512;PMS5003;67809;55.034;73.462;2023-02-22T05:26:26;49.75;36.25;23.00
78512;PMS5003;67809;55.034;73.462;2023-02-22T05:28:52;50.25;38.00;22.00
78512;PMS5003;67809;55.034;73.462;2023-02-22T05:33:55;50.00;37.00;21.00
78512;PMS5003;67809;55.034;73.462;2023-02-22T05:36:32;45.25;33.75;20.75
78512;PMS5003;67809;55.034;73.462;2023-02-22T05:38:59;46.75;35.50;21.00
78512;PMS5003;67809;55.034;73.462;2023-02-22T05:41:26;46.00;35.00;22.00
78512;PMS5003;67809;55.034;73.462;2023-02-22T05:43:57;45.75;35.00;22.00
78512;PMS5003;67809;55.034;73.462;2023-02-22T05:46:23;45.00;34.00;20.00
78512;PMS5003;67809;55.034;73.462;2023-02-22T05:48:49;44.00;32.75;20.00
78512;PMS5003;67809;55.034;73.462;2023-02-22T05:51:15;48.00;34.00;21.00
78512;PMS5003;67809;55.034;73.462;2023-02-22T05:53:44;46.00;35.00;20.00
78512;PMS5003;67809;55.034;73.462;2023-02-22T05:56:10;47.50;34.75;21.75
78512;PMS5003;67809;55.034;73.462;2023-02-22T05:58:36;46.25;33.50;20.00
78512;PMS5003;67809;55.034;73.462;2023-02-22T06:01:02;47.00;36.00;21.00
78512;PMS5003;67809;55.034;73.462;2023-02-22T06:03:28;45.33;33.00;19.33
78512;PMS5003;67809;55.034;73.462;2023-02-22T06:05:54;44.50;34.00;20.25
78512;PMS5003;67809;55.034;73.462;2023-02-22T06:08:20;48.50;35.00;21.00
78512;PMS5003;67809;55.034;73.462;2023-02-22T06:10:46;41.50;32.00;19.00
78512;PMS5003;67809;55.034;73.462;2023-02-22T06:13:18;44.67;33.33;20.33
78512;PMS5003;67809;55.034;73.462;2023-02-22T06:15:44;44.00;32.00;19.00
78512;PMS5003;67809;55.034;73.462;2023-02-22T06:18:10;42.00;31.25;19.00
78512;PMS5003;67809;55.034;73.462;2023-02-22T06:20:36;41.50;33.00;20.25
78512;PMS5003;67809;55.034;73.462;2023-02-22T06:23:11;38.50;28.75;17.25
78512;PMS5003;67809;55.034;73.462;2023-02-22T06:25:42;39.75;31.00;20.00
78512;PMS5003;67809;55.034;73.462;2023-02-22T06:28:08;40.25;30.00;20.00
78512;PMS5003;67809;55.034;73.462;2023-02-22T06:30:35;44.75;33.50;19.00
78512;PMS5003;67809;55.034;73.462;2023-02-22T06:33:06;41.33;30.67;19.00
78512;PMS5003;67809;55.034;73.462;2023-02-22T06:35:32;43.00;32.00;18.00
78512;PMS5003;67809;55.034;73.462;2023-02-22T06:37:58;40.00;31.00;19.00
78512;PMS5003;67809;55.034;73.462;2023-02-22T06:40:24;39.50;30.00;19.00
78512;PMS5003;67809;55.034;73.462;2023-02-22T06:42:54;39.75;30.00;18.75
78512;PMS5003;67809;55.034;73.462;2023-02-22T06:45:20;42.00;31.25;19.00
78512;PMS5003;67809;55.034;73.462;2023-02-22T06:47:47;38.50;30.00;17.50
78512;PMS5003;67809;55.034;73.462;2023-02-22T06:50:21;38.25;29.50;18.50
78512;PMS5003;67809;55.034;73.462;2023-02-22T06:52:48;44.00;33.67;19.00
78512;PMS5003;67809;55.034;73.462;2023-02-22T06:55:28;39.50;30.00;17.50
78512;PMS5003;67809;55.034;73.462;2023-02-22T06:57:54;38.00;30.00;18.00
78512;PMS5003;67809;55.034;73.462;2023-02-22T07:00:21;39.50;30.00;17.75
78512;PMS5003;67809;55.034;73.462;2023-02-22T07:02:49;35.67;28.33;17.00
78512;PMS5003;67809;55.034;73.462;2023-02-22T07:05:16;41.00;31.00;18.25
78512;PMS5003;67809;55.034;73.462;2023-02-22T07:07:42;38.25;29.75;17.25
78512;PMS5003;67809;55.034;73.462;2023-02-22T07:10:15;44.00;32.75;20.00
78512;PMS5003;67809;55.034;73.462;2023-02-22T07:12:41;38.00;29.00;18.00
78512;PMS5003;67809;55.034;73.462;2023-02-22T07:15:07;40.50;30.25;17.75
78512;PMS5003;67809;55.034;73.462;2023-02-22T07:17:33;42.00;31.00;19.00
78512;PMS5003;67809;55.034;73.462;2023-02-22T07:19:59;39.00;30.00;18.25
78512;PMS5003;67809;55.034;73.462;2023-02-22T07:22:31;37.00;28.00;17.00
78512;PMS5003;67809;55.034;73.462;2023-02-22T07:24:57;41.50;30.25;17.50
78512;PMS5003;67809;55.034;73.462;2023-02-22T07:27:34;41.00;32.00;20.00
78512;PMS5003;67809;55.034;73.462;2023-02-22T07:30:00;41.00;31.00;20.00
78512;PMS5003;67809;55.034;73.462;2023-02-22T07:32:27;39.00;29.50;17.50
78512;PMS5003;67809;55.034;73.462;2023-02-22T07:34:53;43.00;32.00;18.00
78512;PMS5003;67809;55.034;73.462;2023-02-22T07:37:19;39.50;30.00;18.25
78512;PMS5003;67809;55.034;73.462;2023-02-22T07:39:45;36.25;28.00;18.25
78512;PMS5003;67809;55.034;73.462;2023-02-22T07:42:12;41.00;31.00;17.00
78512;PMS5003;67809;55.034;73.462;2023-02-22T07:44:38;40.00;31.00;17.33
78512;PMS5003;67809;55.034;73.462;2023-02-22T07:47:04;43.25;33.25;20.25
78512;PMS5003;67809;55.034;73.462;2023-02-22T07:49:30;39.25;31.00;19.75
78512;PMS5003;67809;55.034;73.462;2023-02-22T07:51:56;46.00;35.00;21.00
78512;PMS5003;67809;55.034;73.462;2023-02-22T07:54:22;44.33;34.67;21.67
78512;PMS5003;67809;55.034;73.462;2023-02-22T07:56:59;39.00;30.50;19.00
78512;PMS5003;67809;55.034;73.462;2023-02-22T07:59:25;42.50;32.00;19.00
78512;PMS5003;67809;55.034;73.462;2023-02-22T08:01:51;42.00;33.00;20.00
78512;PMS5003;67809;55.034;73.462;2023-02-22T08:04:23;47.00;35.00;19.50
78512;PMS5003;67809;55.034;73.462;2023-02-22T08:06:59;39.50;30.00;18.00
78512;PMS5003;67809;55.034;73.462;2023-02-22T08:09:25;45.50;34.25;20.25
78512;PMS5003;67809;55.034;73.462;2023-02-22T08:11:51;57.00;44.50;29.50
78512;PMS5003;67809;55.034;73.462;2023-02-22T08:14:27;45.67;33.67;21.67
78512;PMS5003;67809;55.034;73.462;2023-02-22T08:16:54;47.50;34.25;21.00
78512;PMS5003;67809;55.034;73.462;2023-02-22T08:19:20;54.00;41.75;27.50
78512;PMS5003;67809;55.034;73.462;2023-02-22T08:21:52;43.75;33.00;20.50
78512;PMS5003;67809;55.034;73.462;2023-02-22T08:24:18;44.00;33.00;20.50
78512;PMS5003;67809;55.034;73.462;2023-02-22T08:26:44;53.50;40.50;26.75
78512;PMS5003;67809;55.034;73.462;2023-02-22T08:29:11;48.75;37.25;23.50
78512;PMS5003;67809;55.034;73.462;2023-02-22T08:31:39;69.00;52.50;32.75
78512;PMS5003;67809;55.034;73.462;2023-02-22T08:34:05;44.67;34.67;21.67
78512;PMS5003;67809;55.034;73.462;2023-02-22T08:36:31;48.75;35.00;22.00
78512;PMS5003;67809;55.034;73.462;2023-02-22T08:38:59;64.00;50.25;33.75
78512;PMS5003;67809;55.034;73.462;2023-02-22T08:41:25;42.25;32.75;20.25
78512;PMS5003;67809;55.034;73.462;2023-02-22T08:43:51;43.00;34.00;21.00
78512;PMS5003;67809;55.034;73.462;2023-02-22T08:46:17;47.25;37.00;23.00
78512;PMS5003;67809;55.034;73.462;2023-02-22T08:48:49;41.00;32.00;20.00
78512;PMS5003;67809;55.034;73.462;2023-02-22T08:51:20;41.00;32.25;19.25
78512;PMS5003;67809;55.034;73.462;2023-02-22T08:53:47;41.00;32.00;19.67
78512;PMS5003;67809;55.034;73.462;2023-02-22T08:56:13;40.25;31.75;20.00
78512;PMS5003;67809;55.034;73.462;2023-02-22T08:58:39;45.00;34.00;20.50
78512;PMS5003;67809;55.034;73.462;2023-02-22T09:01:10;39.25;31.50;19.50
78512;PMS5003;67809;55.034;73.462;2023-02-22T09:03:36;43.00;33.00;20.00
78512;PMS5003;67809;55.034;73.462;2023-02-22T09:06:02;43.25;31.50;20.00
78512;PMS5003;67809;55.034;73.462;2023-02-22T09:08:29;44.00;33.00;20.50
78512;PMS5003;67809;55.034;73.462;2023-02-22T09:10:55;45.75;32.75;20.00
78512;PMS5003;67809;55.034;73.462;2023-02-22T09:13:21;38.67;30.00;17.67
78512;PMS5003;67809;55.034;73.462;2023-02-22T09:15:57;40.75;31.75;19.25
78512;PMS5003;67809;55.034;73.462;2023-02-22T09:18:23;45.75;34.75;21.00
78512;PMS5003;67809;55.034;73.462;2023-02-22T09:20:50;42.00;32.00;20.00
78512;PMS5003;67809;55.034;73.462;2023-02-22T09:23:27;44.67;32.33;19.67
78512;PMS5003;67809;55.034;73.462;2023-02-22T09:25:53;44.75;33.00;20.50
78512;PMS5003;67809;55.034;73.462;2023-02-22T09:28:19;42.00;32.00;19.00
78512;PMS5003;67809;55.034;73.462;2023-02-22T09:30:45;45.00;34.00;21.00
78512;PMS5003;67809;55.034;73.462;2023-02-22T09:33:16;42.00;33.00;20.00
78512;PMS5003;67809;55.034;73.462;2023-02-22T09:35:43;42.50;31.00;19.25
78512;PMS5003;67809;55.034;73.462;2023-02-22T09:38:21;42.25;31.00;19.25
78512;PMS5003;67809;55.034;73.462;2023-02-22T09:40:53;38.75;30.50;19.00
78512;PMS5003;67809;55.034;73.462;2023-02-22T09:43:23;47.25;35.00;20.50
78512;PMS5003;67809;55.034;73.462;2023-02-22T09:48:27;46.00;35.00;22.00
78512;PMS5003;67809;55.034;73.462;2023-02-22T09:51:08;48.75;37.00;23.00
78512;PMS5003;67809;55.034;73.462;2023-02-22T09:53:50;45.00;32.00;18.25
78512;PMS5003;67809;55.034;73.462;2023-02-22T09:56:18;55.50;42.75;28.00
78512;PMS5003;67809;55.034;73.462;2023-02-22T09:58:46;41.75;33.00;20.00
78512;PMS5003;67809;55.034;73.462;2023-02-22T10:06:12;45.00;35.00;20.00
78512;PMS5003;67809;55.034;73.462;2023-02-22T10:08:44;42.00;31.75;19.00
78512;PMS5003;67809;55.034;73.462;2023-02-22T10:11:17;40.00;30.75;18.00
78512;PMS5003;67809;55.034;73.462;2023-02-22T10:19:53;41.00;32.00;19.00
78512;PMS5003;67809;55.034;73.462;2023-02-22T10:22:44;44.00;32.50;20.00
78512;PMS5003;67809;55.034;73.462;2023-02-22T10:30:32;40.75;32.25;20.00
78512;PMS5003;67809;55.034;73.462;2023-02-22T10:33:11;44.75;33.75;20.00
78512;PMS5003;67809;55.034;73.462;2023-02-22T10:35:40;42.33;32.00;20.00
78512;PMS5003;67809;55.034;73.462;2023-02-22T10:38:39;42.00;32.00;19.00
78512;PMS5003;67809;55.034;73.462;2023-02-22T10:41:03;45.50;33.00;19.25
78512;PMS5003;67809;55.034;73.462;2023-02-22T10:43:43;41.75;31.50;19.00
78512;PMS5003;67809;55.034;73.462;2023-02-22T10:46:11;48.00;34.25;20.00
78512;PMS5003;67809;55.034;73.462;2023-02-22T10:48:39;40.50;31.25;19.25
78512;PMS5003;67809;55.034;73.462;2023-02-22T10:51:07;45.00;34.00;20.00
78512;PMS5003;67809;55.034;73.462;2023-02-22T10:53:34;42.75;33.00;20.25
78512;PMS5003;67809;55.034;73.462;2023-02-22T10:56:04;45.25;32.75;21.00
78512;PMS5003;67809;55.034;73.462;2023-02-22T10:58:51;43.75;33.25;19.00
78512;PMS5003;67809;55.034;73.462;2023-02-22T11:01:19;43.25;33.00;20.50
78512;PMS5003;67809;55.034;73.462;2023-02-22T11:06:28;46.00;34.00;21.00
78512;PMS5003;67809;55.034;73.462;2023-02-22T11:11:38;46.75;34.25;21.00
78512;PMS5003;67809;55.034;73.462;2023-02-22T11:14:04;45.00;34.00;19.00
78512;PMS5003;67809;55.034;73.462;2023-02-22T11:22:08;44.50;33.50;20.25
78512;PMS5003;67809;55.034;73.462;2023-02-22T11:24:46;45.50;32.00;18.75
78512;PMS5003;67809;55.034;73.462;2023-02-22T11:30:09;45.00;33.00;20.25
78512;PMS5003;67809;55.034;73.462;2023-02-22T11:33:32;44.75;32.25;19.00
78512;PMS5003;67809;55.034;73.462;2023-02-22T11:35:35;46.50;34.00;19.00
78512;PMS5003;67809;55.034;73.462;2023-02-22T11:38:14;43.25;31.25;19.00
78512;PMS5003;67809;55.034;73.462;2023-02-22T11:40:41;44.75;33.25;19.00
78512;PMS5003;67809;55.034;73.462;2023-02-22T11:43:18;46.50;34.75;20.00
78512;PMS5003;67809;55.034;73.462;2023-02-22T11:45:57;46.00;33.00;20.25
78512;PMS5003;67809;55.034;73.462;2023-02-22T11:48:38;44.25;33.00;19.00
78512;PMS5003;67809;55.034;73.462;2023-02-22T11:56:39;48.00;34.00;20.00
78512;PMS5003;67809;55.034;73.462;2023-02-22T11:59:34;46.50;34.00;20.25
78512;PMS5003;67809;55.034;73.462;2023-02-22T12:04:44;44.00;32.50;19.75
78512;PMS5003;67809;55.034;73.462;2023-02-22T12:12:40;46.00;33.75;22.00
78512;PMS5003;67809;55.034;73.462;2023-02-22T12:20:57;50.00;34.00;20.00
78512;PMS5003;67809;55.034;73.462;2023-02-22T12:23:30;43.00;32.00;20.00
78512;PMS5003;67809;55.034;73.462;2023-02-22T12:26:04;44.00;34.00;20.00
78512;PMS5003;67809;55.034;73.462;2023-02-22T12:28:33;44.00;33.50;20.00
78512;PMS5003;67809;55.034;73.462;2023-02-22T12:33:39;44.50;32.50;20.00
78512;PMS5003;67809;55.034;73.462;2023-02-22T12:36:07;43.67;31.67;19.00
78512;PMS5003;67809;55.034;73.462;2023-02-22T12:38:40;43.25;31.75;19.00
78512;PMS5003;67809;55.034;73.462;2023-02-22T12:43:49;46.00;33.00;19.00
78512;PMS5003;67809;55.034;73.462;2023-02-22T12:48:56;43.00;32.25;20.00
78512;PMS5003;67809;55.034;73.462;2023-02-22T12:57:01;70.00;49.33;30.00
78512;PMS5003;67809;55.034;73.462;2023-02-22T12:59:40;56.50;41.50;24.75
78512;PMS5003;67809;55.034;73.462;2023-02-22T13:02:31;62.00;46.00;27.75
78512;PMS5003;67809;55.034;73.462;2023-02-22T13:05:00;67.25;49.75;30.75
78512;PMS5003;67809;55.034;73.462;2023-02-22T13:15:56;54.00;38.00;21.00
78512;PMS5003;67809;55.034;73.462;2023-02-22T13:21:13;41.00;31.75;19.00
78512;PMS5003;67809;55.034;73.462;2023-02-22T13:26:39;40.00;30.00;18.33
78512;PMS5003;67809;55.034;73.462;2023-02-22T13:29:07;43.00;31.25;19.75
78512;PMS5003;67809;55.034;73.462;2023-02-22T13:31:53;43.00;31.00;19.00
78512;PMS5003;67809;55.034;73.462;2023-02-22T13:37:17;46.25;33.50;20.75
78512;PMS5003;67809;55.034;73.462;2023-02-22T13:40:07;44.00;33.00;21.00
78512;PMS5003;67809;55.034;73.462;2023-02-22T13:45:35;48.75;35.00;21.00
78512;PMS5003;67809;55.034;73.462;2023-02-22T13:53:14;40.50;32.00;19.75
78512;PMS5003;67809;55.034;73.462;2023-02-22T13:55:42;39.00;30.00;17.50
78512;PMS5003;67809;55.034;73.462;2023-02-22T13:58:21;38.25;29.00;18.00
78512;PMS5003;67809;55.034;73.462;2023-02-22T14:00:51;44.75;32.50;19.00
78512;PMS5003;67809;55.034;73.462;2023-02-22T14:05:52;38.25;29.00;17.75
78512;PMS5003;67809;55.034;73.462;2023-02-22T14:10:51;42.00;30.00;17.00
78512;PMS5003;67809;55.034;73.462;2023-02-22T14:13:25;42.00;30.75;18.75
78512;PMS5003;67809;55.034;73.462;2023-02-22T14:21:39;37.00;28.50;17.00
78512;PMS5003;67809;55.034;73.462;2023-02-22T14:23:49;40.00;30.00;18.00
78512;PMS5003;67809;55.034;73.462;2023-02-22T14:26:35;43.75;31.00;19.00
78512;PMS5003;67809;55.034;73.462;2023-02-22T14:31:33;37.67;28.67;17.33
78512;PMS5003;67809;55.034;73.462;2023-02-22T14:34:07;40.00;27.50;17.00
78512;PMS5003;67809;55.034;73.462;2023-02-22T14:42:01;40.00;29.00;17.00
78512;PMS5003;67809;55.034;73.462;2023-02-22T14:44:30;38.75;29.00;18.00
78512;PMS5003;67809;55.034;73.462;2023-02-22T14:46:58;40.25;29.75;16.00
78512;PMS5003;67809;55.034;73.462;2023-02-22T14:49:27;35.50;26.00;15.00
78512;PMS5003;67809;55.034;73.462;2023-02-22T14:51:59;36.33;27.33;17.00
78512;PMS5003;67809;55.034;73.462;2023-02-22T14:54:50;40.00;30.00;17.00
78512;PMS5003;67809;55.034;73.462;2023-02-22T14:57:23;39.50;29.75;17.25
78512;PMS5003;67809;55.034;73.462;2023-02-22T15:00:01;37.75;28.00;17.00
78512;PMS5003;67809;55.034;73.462;2023-02-22T15:02:41;34.00;25.33;16.00
78512;PMS5003;67809;55.034;73.462;2023-02-22T15:05:13;35.00;26.00;16.00
78512;PMS5003;67809;55.034;73.462;2023-02-22T15:07:47;33.75;27.00;16.00
78512;PMS5003;67809;55.034;73.462;2023-02-22T15:10:38;37.00;27.00;16.00
78512;PMS5003;67809;55.034;73.462;2023-02-22T15:13:17;39.00;29.00;16.50
78512;PMS5003;67809;55.034;73.462;2023-02-22T15:15:45;32.25;25.00;16.00
78512;PMS5003;67809;55.034;73.462;2023-02-22T15:18:25;29.75;23.00;13.75
78512;PMS5003;67809;55.034;73.462;2023-02-22T15:20:55;33.50;25.75;15.75
78512;PMS5003;67809;55.034;73.462;2023-02-22T15:23:27;33.50;23.50;14.00
78512;PMS5003;67809;55.034;73.462;2023-02-22T15:26:05;32.75;25.25;15.00
78512;PMS5003;67809;55.034;73.462;2023-02-22T15:28:37;37.75;27.25;16.75
78512;PMS5003;67809;55.034;73.462;2023-02-22T15:33:40;37.00;27.00;16.00
78512;PMS5003;67809;55.034;73.462;2023-02-22T15:36:17;36.25;27.00;16.00
78512;PMS5003;67809;55.034;73.462;2023-02-22T15:38:46;32.75;25.00;16.00
78512;PMS5003;67809;55.034;73.462;2023-02-22T15:41:47;34.00;26.00;15.00
78512;PMS5003;67809;55.034;73.462;2023-02-22T15:44:10;40.67;29.33;18.00
78512;PMS5003;67809;55.034;73.462;2023-02-22T15:46:39;49.50;36.50;20.75
78512;PMS5003;67809;55.034;73.462;2023-02-22T15:51:43;46.00;32.75;20.00
78512;PMS5003;67809;55.034;73.462;2023-02-22T15:54:16;37.00;28.67;17.67
78512;PMS5003;67809;55.034;73.462;2023-02-22T15:56:48;37.50;29.50;18.00
78512;PMS5003;67809;55.034;73.462;2023-02-22T15:59:25;41.00;30.50;17.50
78512;PMS5003;67809;55.034;73.462;2023-02-22T16:02:05;47.67;32.67;19.67
78512;PMS5003;67809;55.034;73.462;2023-02-22T16:04:41;46.00;34.00;20.50
78512;PMS5003;67809;55.034;73.462;2023-02-22T16:07:10;44.50;34.00;20.00
78512;PMS5003;67809;55.034;73.462;2023-02-22T16:09:45;47.25;31.50;19.00
78512;PMS5003;67809;55.034;73.462;2023-02-22T16:12:25;45.67;33.33;19.33
78512;PMS5003;67809;55.034;73.462;2023-02-22T16:14:51;43.00;31.00;18.00
78512;PMS5003;67809;55.034;73.462;2023-02-22T16:19:50;39.00;30.00;18.00
78512;PMS5003;67809;55.034;73.462;2023-02-22T16:22:29;36.25;27.00;15.00
78512;PMS5003;67809;55.034;73.462;2023-02-22T16:25:59;47.25;32.00;19.00
78512;PMS5003;67809;55.034;73.462;2023-02-22T16:27:55;37.25;27.75;15.25
78512;PMS5003;67809;55.034;73.462;2023-02-22T16:32:50;45.00;31.00;19.00
78512;PMS5003;67809;55.034;73.462;2023-02-22T16:35:27;40.50;29.25;17.75
78512;PMS5003;67809;55.034;73.462;2023-02-22T16:38:07;37.75;28.50;18.00
78512;PMS5003;67809;55.034;73.462;2023-02-22T16:40:54;31.00;24.00;16.00
78512;PMS5003;67809;55.034;73.462;2023-02-22T16:43:26;37.00;28.00;17.00
78512;PMS5003;67809;55.034;73.462;2023-02-22T16:45:54;38.50;29.75;19.00